createdAt,value
2019-02-23T00:01:20.261Z,130.90
2019-02-23T00:03:47.858Z,118.83
2019-02-23T00:06:15.775Z,124.57
2019-02-23T00:08:43.514Z,107.93
2019-02-23T00:11:11.005Z,115.53
2019-02-23T00:13:38.651Z,111.83
2019-02-23T00:16:06.280Z,115.87
2019-02-23T00:18:33.958Z,121.67
2019-02-23T00:21:01.881Z,114.43
2019-02-23T00:23:29.414Z,119.67
2019-02-23T00:25:57.002Z,113.53
2019-02-23T00:28:24.517Z,121.67
2019-02-23T00:30:52.128Z,110.53
2019-02-23T00:33:19.793Z,125.20
2019-02-23T00:35:47.476Z,125.80
2019-02-23T00:38:15.003Z,141.33
2019-02-23T00:40:42.631Z,132.37
2019-02-23T00:43:10.223Z,144.23
2019-02-23T00:45:37.823Z,135.40
2019-02-23T00:48:05.661Z,140.80
2019-02-23T00:50:34.638Z,142.60
2019-02-23T00:53:02.251Z,139.23
2019-02-23T00:55:29.891Z,141.87
2019-02-23T00:57:57.494Z,145.03
2019-02-23T01:00:25.107Z,136.40
2019-02-23T01:02:52.713Z,130.03
2019-02-23T01:05:20.630Z,125.53
2019-02-23T01:07:48.226Z,132.13
2019-02-23T01:10:15.942Z,125.03
2019-02-23T01:12:43.901Z,123.47
2019-02-23T01:15:11.892Z,116.57
2019-02-23T01:17:39.555Z,110.40
2019-02-23T01:20:08.243Z,112.73
2019-02-23T01:22:36.160Z,111.50
2019-02-23T01:25:04.601Z,120.57
2019-02-23T01:27:32.124Z,121.20
2019-02-23T01:29:59.711Z,120.43
2019-02-23T01:32:29.446Z,111.87
2019-02-23T01:34:58.909Z,109.70
2019-02-23T01:37:26.493Z,116.77
2019-02-23T01:39:55.133Z,117.60
2019-02-23T01:42:22.833Z,116.87
2019-02-23T01:44:50.771Z,103.20
2019-02-23T01:47:18.637Z,116.80
2019-02-23T01:49:46.130Z,107.63
2019-02-23T01:52:14.026Z,112.80
2019-02-23T01:54:41.726Z,113.77
2019-02-23T01:57:09.351Z,124.27
2019-02-23T01:59:37.329Z,120.43
2019-02-23T02:02:06.350Z,118.53
2019-02-23T02:04:33.836Z,117.37
2019-02-23T02:07:01.408Z,120.90
2019-02-23T02:09:29.208Z,124.27
2019-02-23T02:11:57.171Z,127.47
2019-02-23T02:14:25.089Z,136.00
2019-02-23T02:16:52.732Z,123.47
2019-02-23T02:19:20.360Z,125.73
2019-02-23T02:21:48.059Z,149.63
2019-02-23T02:24:15.637Z,140.73
2019-02-23T02:26:44.453Z,132.67
2019-02-23T02:29:13.518Z,142.87
2019-02-23T02:31:41.058Z,133.17
2019-02-23T02:34:09.464Z,148.90
2019-02-23T02:36:37.044Z,133.30
2019-02-23T02:39:07.511Z,137.60
2019-02-23T02:41:35.106Z,133.50
2019-02-23T02:44:02.782Z,141.90
2019-02-23T02:46:30.507Z,145.60
2019-02-23T02:48:58.087Z,136.30
2019-02-23T02:51:26.662Z,135.57
2019-02-23T02:53:54.270Z,136.70
2019-02-23T02:56:21.778Z,134.70
2019-02-23T02:58:49.721Z,144.37
2019-02-23T03:01:17.253Z,130.27
2019-02-23T03:03:45.049Z,130.07
2019-02-23T03:06:12.669Z,136.83
2019-02-23T03:08:40.242Z,130.87
2019-02-23T03:11:08.113Z,135.00
2019-02-23T03:13:35.661Z,141.10
2019-02-23T03:16:05.108Z,143.70
2019-02-23T03:18:32.684Z,142.60
2019-02-23T03:21:00.637Z,143.37
2019-02-23T03:23:28.275Z,145.13
2019-02-23T03:25:56.158Z,155.17
2019-02-23T03:28:23.747Z,141.33
2019-02-23T03:30:51.695Z,141.60
2019-02-23T03:33:19.311Z,135.87
2019-02-23T03:35:46.882Z,134.50
2019-02-23T03:38:14.879Z,138.60
2019-02-23T03:40:42.441Z,145.43
2019-02-23T03:43:09.961Z,148.40
2019-02-23T03:45:37.945Z,152.30
2019-02-23T03:48:05.549Z,160.23
2019-02-23T03:50:33.294Z,168.43
2019-02-23T03:53:00.881Z,165.40
2019-02-23T03:55:28.508Z,167.60
2019-02-23T03:57:56.678Z,176.50
2019-02-23T04:00:24.293Z,178.60
2019-02-23T04:02:52.249Z,186.93
2019-02-23T04:05:20.571Z,195.93
2019-02-23T04:07:48.158Z,209.80
2019-02-23T04:10:16.132Z,226.23
2019-02-23T04:12:43.717Z,216.23
2019-02-23T04:15:11.397Z,222.07
2019-02-23T04:17:38.995Z,243.27
2019-02-23T04:20:07.178Z,246.43
2019-02-23T04:22:34.705Z,261.93
2019-02-23T04:25:02.657Z,226.73
2019-02-23T04:27:30.255Z,221.17
2019-02-23T04:29:57.852Z,234.57
2019-02-23T04:32:25.405Z,216.37
2019-02-23T04:34:53.336Z,214.83
2019-02-23T04:37:20.968Z,207.97
2019-02-23T04:39:48.626Z,195.70
2019-02-23T04:42:16.424Z,202.60
2019-02-23T04:44:44.024Z,189.80
2019-02-23T04:47:11.603Z,190.40
2019-02-23T04:49:39.184Z,194.17
2019-02-23T04:52:06.683Z,199.93
2019-02-23T04:54:37.090Z,196.63
2019-02-23T04:57:04.582Z,206.70
2019-02-23T04:59:32.053Z,200.37
2019-02-23T05:01:59.667Z,208.93
2019-02-23T05:04:27.531Z,213.67
2019-02-23T05:06:55.490Z,225.20
2019-02-23T05:09:23.060Z,237.10
2019-02-23T05:11:51.730Z,247.47
2019-02-23T05:14:19.393Z,250.67
2019-02-23T05:16:47.257Z,271.30
2019-02-23T05:19:14.761Z,296.83
2019-02-23T05:21:42.357Z,298.40
2019-02-23T05:24:10.279Z,313.97
2019-02-23T05:26:37.855Z,313.87
2019-02-23T05:29:05.540Z,345.50
2019-02-23T05:31:33.249Z,316.17
2019-02-23T05:34:00.818Z,341.00
2019-02-23T05:36:28.416Z,332.17
2019-02-23T05:38:56.097Z,323.83
2019-02-23T05:41:24.079Z,341.40
2019-02-23T05:43:52.016Z,346.17
2019-02-23T05:46:19.721Z,343.27
2019-02-23T05:48:47.300Z,344.70
2019-02-23T05:51:14.919Z,324.97
2019-02-23T05:53:42.494Z,323.90
2019-02-23T05:56:15.156Z,327.87
2019-02-23T05:58:39.747Z,325.23
2019-02-23T06:01:07.371Z,300.53
2019-02-23T06:03:34.845Z,328.43
2019-02-23T06:06:02.351Z,333.83
2019-02-23T06:08:29.915Z,315.30
2019-02-23T06:10:57.711Z,322.93
2019-02-23T06:13:25.280Z,300.73
2019-02-23T06:15:52.791Z,280.90
2019-02-23T06:18:20.388Z,267.33
2019-02-23T06:20:48.604Z,278.13
2019-02-23T06:23:16.220Z,243.77
2019-02-23T06:25:43.776Z,235.00
2019-02-23T06:28:11.381Z,245.40
2019-02-23T06:30:38.958Z,202.50
2019-02-23T06:33:06.564Z,235.83
2019-02-23T06:35:34.131Z,220.93
2019-02-23T06:38:01.717Z,222.67
2019-02-23T06:40:29.299Z,223.67
2019-02-23T06:42:57.955Z,199.27
2019-02-23T06:45:26.064Z,208.73
2019-02-23T06:47:53.734Z,196.23
2019-02-23T06:50:21.670Z,199.00
2019-02-23T06:52:49.380Z,177.87
2019-02-23T06:55:16.986Z,158.57
2019-02-23T06:57:44.569Z,170.57
2019-02-23T07:00:12.622Z,162.00
2019-02-23T07:02:40.214Z,155.60
2019-02-23T07:05:07.877Z,164.10
2019-02-23T07:07:35.474Z,196.23
2019-02-23T07:10:03.783Z,166.53
2019-02-23T07:12:32.240Z,168.23
2019-02-23T07:14:59.752Z,187.17
2019-02-23T07:17:27.669Z,196.40
2019-02-23T07:19:55.259Z,166.27
2019-02-23T07:22:22.822Z,164.53
2019-02-23T07:24:50.340Z,167.53
2019-02-23T07:27:17.922Z,137.03
2019-02-23T07:29:45.637Z,150.50
2019-02-23T07:32:13.101Z,132.03
2019-02-23T07:34:40.622Z,143.37
2019-02-23T07:37:08.223Z,145.37
2019-02-23T07:39:36.135Z,129.00
2019-02-23T07:42:03.836Z,129.73
2019-02-23T07:44:31.740Z,139.20
2019-02-23T07:46:59.315Z,155.83
2019-02-23T07:49:26.856Z,127.47
2019-02-23T07:51:54.390Z,125.40
2019-02-23T07:54:22.505Z,134.77
2019-02-23T07:56:50.086Z,127.47
2019-02-23T07:59:17.652Z,103.00
2019-02-23T08:01:45.236Z,87.57
2019-02-23T08:04:13.063Z,88.40
2019-02-23T08:06:40.667Z,85.50
2019-02-23T08:09:08.921Z,84.60
2019-02-23T08:11:36.516Z,79.40
2019-02-23T08:14:04.043Z,76.77
2019-02-23T08:16:31.616Z,63.73
2019-02-23T08:18:59.278Z,63.13
2019-02-23T08:21:27.169Z,55.93
2019-02-23T08:23:54.702Z,48.53
2019-02-23T08:26:22.237Z,49.40
2019-02-23T08:28:49.979Z,46.80
2019-02-23T08:31:17.643Z,43.03
2019-02-23T08:33:45.252Z,43.57
2019-02-23T08:36:12.812Z,40.17
2019-02-23T08:38:40.998Z,40.33
2019-02-23T08:41:08.879Z,38.70
2019-02-23T08:43:36.705Z,40.43
2019-02-23T08:46:04.179Z,37.63
2019-02-23T08:48:33.513Z,30.33
2019-02-23T08:51:01.249Z,33.60
2019-02-23T08:53:29.181Z,32.47
2019-02-23T08:55:57.065Z,33.77
2019-02-23T08:58:24.954Z,33.73
2019-02-23T09:00:52.850Z,29.77
2019-02-23T09:03:20.440Z,33.77
2019-02-23T09:05:48.027Z,32.57
2019-02-23T09:08:15.573Z,31.93
2019-02-23T09:10:46.844Z,31.27
2019-02-23T09:13:14.412Z,24.83
2019-02-23T09:15:42.072Z,23.10
2019-02-23T09:18:09.833Z,24.73
2019-02-23T09:20:37.719Z,21.47
2019-02-23T09:23:05.324Z,21.97
2019-02-23T09:25:32.878Z,22.40
2019-02-23T09:28:00.782Z,19.17
2019-02-23T09:30:28.339Z,21.90
2019-02-23T09:32:56.249Z,22.13
2019-02-23T09:35:23.954Z,15.67
2019-02-23T09:37:51.563Z,13.63
2019-02-23T09:40:19.128Z,15.13
2019-02-23T09:42:47.059Z,16.50
2019-02-23T09:45:14.974Z,15.30
2019-02-23T09:47:42.494Z,14.23
2019-02-23T09:50:10.080Z,14.77
2019-02-23T09:52:37.725Z,12.83
2019-02-23T09:55:05.400Z,15.90
2019-02-23T09:57:32.993Z,12.93
2019-02-23T10:00:00.561Z,13.73
2019-02-23T10:02:28.484Z,13.70
2019-02-23T10:04:56.525Z,11.70
2019-02-23T10:07:24.318Z,13.80
2019-02-23T10:09:52.074Z,14.30
2019-02-23T10:12:19.676Z,13.87
2019-02-23T10:14:47.390Z,16.60
2019-02-23T10:17:15.115Z,16.40
2019-02-23T10:19:45.351Z,18.43
2019-02-23T10:22:13.155Z,17.20
2019-02-23T10:24:40.823Z,15.07
2019-02-23T10:27:08.481Z,17.77
2019-02-23T10:29:36.111Z,16.80
2019-02-23T10:32:03.703Z,13.97
2019-02-23T10:34:31.485Z,16.40
2019-02-23T10:36:59.362Z,15.13
2019-02-23T10:39:32.150Z,14.10
2019-02-23T10:41:59.759Z,15.80
2019-02-23T10:44:27.400Z,16.37
2019-02-23T10:46:55.014Z,16.40
2019-02-23T10:49:23.031Z,15.77
2019-02-23T10:51:50.956Z,14.60
2019-02-23T10:54:18.686Z,14.40
2019-02-23T10:56:46.313Z,15.57
2019-02-23T10:59:14.337Z,14.43
2019-02-23T11:01:42.480Z,17.77
2019-02-23T11:04:10.127Z,11.07
2019-02-23T11:06:38.559Z,14.67
2019-02-23T11:09:08.985Z,15.40
2019-02-23T11:11:36.927Z,14.53
2019-02-23T11:14:04.590Z,17.80
2019-02-23T11:16:32.206Z,19.30
2019-02-23T11:19:00.050Z,17.03
2019-02-23T11:21:27.870Z,15.60
2019-02-23T11:23:55.738Z,18.43
2019-02-23T11:26:23.606Z,16.77
2019-02-23T11:28:51.294Z,14.77
2019-02-23T11:31:23.955Z,18.70
2019-02-23T11:33:51.793Z,17.47
2019-02-23T11:36:19.399Z,16.03
2019-02-23T11:38:47.233Z,13.03
2019-02-23T11:41:14.832Z,15.00
2019-02-23T11:43:42.743Z,16.20
2019-02-23T11:46:10.349Z,14.60
2019-02-23T11:48:38.167Z,15.70
2019-02-23T11:51:05.908Z,15.37
2019-02-23T11:53:33.554Z,13.33
2019-02-23T11:56:01.147Z,13.97
2019-02-23T11:58:29.043Z,15.27
2019-02-23T12:00:56.648Z,16.00
2019-02-23T12:03:24.582Z,16.80
2019-02-23T12:05:52.179Z,10.97
2019-02-23T12:08:21.267Z,13.50
2019-02-23T12:10:48.955Z,13.20
2019-02-23T12:13:16.968Z,13.43
2019-02-23T12:15:44.586Z,13.27
2019-02-23T12:18:12.574Z,12.47
2019-02-23T12:20:40.174Z,14.80
2019-02-23T12:25:57.307Z,10.63
2019-02-23T12:28:24.938Z,10.27
2019-02-23T12:30:52.572Z,12.10
2019-02-23T12:33:20.268Z,11.90
2019-02-23T12:35:47.799Z,10.53
2019-02-23T12:38:15.490Z,11.30
2019-02-23T12:40:43.284Z,9.83
2019-02-23T12:43:10.951Z,10.53
2019-02-23T12:45:38.801Z,10.20
2019-02-23T12:48:06.725Z,9.57
2019-02-23T12:50:34.322Z,8.53
2019-02-23T12:53:01.934Z,6.80
2019-02-23T12:55:29.551Z,8.77
2019-02-23T12:57:57.995Z,9.67
2019-02-23T13:00:25.594Z,10.27
2019-02-23T13:02:53.226Z,8.37
2019-02-23T13:05:20.860Z,9.37
2019-02-23T13:07:48.851Z,6.67
2019-02-23T13:10:16.647Z,10.40
2019-02-23T13:13:03.635Z,8.80
2019-02-23T13:15:37.176Z,7.23
2019-02-23T13:18:23.322Z,7.67
2019-02-23T13:20:57.415Z,7.97
2019-02-23T13:23:43.449Z,9.63
2019-02-23T13:26:33.945Z,9.53
2019-02-23T13:29:24.238Z,10.30
2019-02-23T13:32:17.613Z,8.60
2019-02-23T13:35:03.778Z,9.08
2019-02-23T13:38:09.303Z,9.37
2019-02-23T13:41:11.782Z,9.75
2019-02-23T13:43:46.236Z,11.07
2019-02-23T13:46:23.079Z,8.20
2019-02-23T13:49:22.481Z,9.37
2019-02-23T13:52:10.287Z,8.97
2019-02-23T13:55:17.698Z,9.77
2019-02-23T13:57:59.646Z,9.60
2019-02-23T14:00:50.935Z,9.40
2019-02-23T14:03:31.355Z,10.63
2019-02-23T14:06:18.552Z,11.43
2019-02-23T14:08:56.373Z,9.37
2019-02-23T14:11:35.345Z,11.77
2019-02-23T14:14:25.733Z,10.40
2019-02-23T14:17:08.492Z,9.33
2019-02-23T14:19:55.724Z,9.50
2019-02-23T14:23:01.222Z,9.25
2019-02-23T14:25:58.067Z,9.38
2019-02-23T14:28:51.443Z,9.63
2019-02-23T14:31:37.542Z,11.50
2019-02-23T14:34:28.905Z,10.03
2019-02-23T14:37:15.733Z,10.05
2019-02-23T14:40:05.374Z,9.17
2019-02-23T14:43:12.045Z,10.90
2019-02-23T14:45:58.512Z,9.00
2019-02-23T14:49:04.594Z,9.70
2019-02-23T14:51:52.289Z,9.43
2019-02-23T14:54:26.247Z,10.20
2019-02-23T14:57:16.150Z,9.98
2019-02-23T14:59:48.586Z,11.27
2019-02-23T15:02:38.979Z,10.73
2019-02-23T15:05:25.297Z,11.30
2019-02-23T15:08:21.594Z,12.03
2019-02-23T15:11:08.082Z,11.23
2019-02-23T15:13:54.442Z,11.35
2019-02-23T15:16:40.401Z,10.13
2019-02-23T15:19:26.127Z,12.30
2019-02-23T15:22:13.285Z,9.95
2019-02-23T15:24:49.637Z,9.00
2019-02-23T15:27:32.801Z,9.08
2019-02-23T15:30:18.900Z,8.77
2019-02-23T15:48:51.923Z,10.90
2019-02-23T15:51:19.495Z,10.80
2019-02-23T15:53:48.066Z,9.20
2019-02-23T15:56:15.924Z,9.87
2019-02-23T15:58:43.939Z,14.83
2019-02-23T16:07:22.658Z,11.60
2019-02-23T16:09:50.252Z,10.70
2019-02-23T16:12:18.240Z,11.23
2019-02-23T16:14:46.950Z,10.47
2019-02-23T16:17:14.584Z,9.63
2019-02-23T16:19:42.220Z,11.57
2019-02-23T16:22:10.178Z,16.03
2019-02-23T16:24:37.797Z,10.63
2019-02-23T16:27:05.609Z,10.33
2019-02-23T16:29:33.191Z,14.13
2019-02-23T16:32:00.862Z,10.67
2019-02-23T16:34:29.141Z,10.97
2019-02-23T16:36:57.155Z,11.23
2019-02-23T16:39:25.031Z,10.30
2019-02-23T16:41:52.782Z,12.90
2019-02-23T16:44:20.393Z,10.87
2019-02-23T16:46:48.133Z,12.93
2019-02-23T16:49:16.060Z,10.93
2019-02-23T16:51:43.745Z,11.03
2019-02-23T16:54:11.358Z,11.00
2019-02-23T16:56:39.072Z,11.67
2019-02-23T16:59:06.711Z,13.13
2019-02-23T17:01:34.329Z,13.33
2019-02-23T17:04:02.351Z,11.60
2019-02-23T17:06:32.860Z,11.63
2019-02-23T17:09:02.828Z,15.57
2019-02-23T17:11:30.765Z,13.33
2019-02-23T17:13:58.383Z,11.27
2019-02-23T17:16:27.095Z,15.57
2019-02-23T17:18:54.743Z,14.47
2019-02-23T17:21:22.390Z,17.23
2019-02-23T17:23:50.028Z,12.93
2019-02-23T17:26:18.045Z,12.90
2019-02-23T17:28:45.931Z,13.03
2019-02-23T17:31:13.971Z,13.33
2019-02-23T17:33:41.849Z,15.47
2019-02-23T17:36:09.832Z,13.23
2019-02-23T17:38:37.349Z,16.00
2019-02-23T17:41:04.885Z,14.80
2019-02-23T17:43:32.550Z,12.93
2019-02-23T17:46:00.485Z,17.93
2019-02-23T17:48:28.351Z,16.37
2019-02-23T17:50:56.717Z,14.93
2019-02-23T17:53:24.993Z,16.33
2019-02-23T17:55:52.600Z,17.23
2019-02-23T17:58:20.586Z,14.57
2019-02-23T18:00:48.485Z,15.90
2019-02-23T18:03:16.012Z,16.97
2019-02-23T18:05:44.190Z,17.33
2019-02-23T18:08:11.711Z,17.50
2019-02-23T18:10:39.321Z,15.93
2019-02-23T18:13:06.942Z,17.83
2019-02-23T18:15:34.560Z,15.73
2019-02-23T18:18:02.385Z,19.33
2019-02-23T18:20:30.027Z,17.30
2019-02-23T18:22:57.606Z,17.40
2019-02-23T18:25:25.234Z,16.13
2019-02-23T18:27:52.878Z,16.63
2019-02-23T18:33:00.384Z,14.73
2019-02-23T18:35:28.024Z,18.10
2019-02-23T18:37:57.139Z,17.63
2019-02-23T18:40:24.771Z,17.17
2019-02-23T18:42:52.361Z,18.98
2019-02-23T18:45:19.890Z,17.00
2019-02-23T18:47:47.523Z,22.10
2019-02-23T18:50:15.160Z,21.87
2019-02-23T18:52:42.766Z,21.80
2019-02-23T18:55:11.084Z,19.87
2019-02-23T18:57:38.700Z,22.23
2019-02-23T19:00:08.709Z,22.87
2019-02-23T19:02:37.700Z,23.27
2019-02-23T19:05:06.349Z,22.80
2019-02-23T19:07:34.343Z,21.73
2019-02-23T19:10:01.953Z,22.37
2019-02-23T19:12:29.953Z,21.23
2019-02-23T19:14:57.580Z,24.50
2019-02-23T19:17:25.091Z,23.47
2019-02-23T19:19:52.746Z,21.00
2019-02-23T19:22:20.370Z,21.47
2019-02-23T19:24:48.417Z,23.70
2019-02-23T19:27:16.570Z,22.23
2019-02-23T19:29:44.171Z,22.97
2019-02-23T19:32:11.824Z,22.63
2019-02-23T19:34:39.422Z,25.03
2019-02-23T19:37:07.697Z,22.73
2019-02-23T19:39:35.567Z,23.63
2019-02-23T19:42:03.574Z,23.10
2019-02-23T19:44:31.240Z,23.37
2019-02-23T19:47:04.193Z,26.80
2019-02-23T19:49:31.841Z,22.90
2019-02-23T19:51:59.816Z,21.47
2019-02-23T19:54:27.747Z,22.23
2019-02-23T19:56:55.736Z,23.07
2019-02-23T19:59:23.350Z,24.37
2019-02-23T20:01:50.967Z,30.63
2019-02-23T20:04:18.897Z,26.20
2019-02-23T20:06:46.439Z,26.63
2019-02-23T20:09:14.919Z,33.73
2019-02-23T20:11:42.400Z,27.70
2019-02-23T20:14:10.025Z,31.40
2019-02-23T20:16:37.640Z,31.00
2019-02-23T20:19:05.329Z,26.73
2019-02-23T20:21:32.913Z,28.13
2019-02-23T20:24:00.516Z,27.13
2019-02-23T20:26:28.135Z,26.43
2019-02-23T20:28:55.706Z,22.70
2019-02-23T20:31:23.283Z,24.50
2019-02-23T20:33:50.846Z,24.43
2019-02-23T20:36:18.766Z,26.27
2019-02-23T20:38:46.678Z,25.53
2019-02-23T20:41:14.245Z,27.10
2019-02-23T20:43:41.827Z,26.80
2019-02-23T20:46:09.387Z,25.33
2019-02-23T20:48:37.428Z,25.63
2019-02-23T20:51:04.971Z,27.23
2019-02-23T20:53:32.945Z,25.03
2019-02-23T20:56:00.415Z,27.53
2019-02-23T20:58:27.973Z,27.47
2019-02-23T21:00:55.523Z,25.07
2019-02-23T21:03:23.126Z,26.27
2019-02-23T21:05:50.677Z,25.23
2019-02-23T21:08:18.593Z,22.47
2019-02-23T21:10:46.333Z,23.43
2019-02-23T21:13:13.894Z,24.43
2019-02-23T21:15:41.812Z,23.83
2019-02-23T21:18:09.426Z,24.23
2019-02-23T21:20:37.263Z,23.53
2019-02-23T21:23:04.882Z,23.43
2019-02-23T21:25:32.477Z,22.53
2019-02-23T21:28:00.044Z,24.03
2019-02-23T21:30:27.975Z,23.70
2019-02-23T21:32:55.443Z,24.50
2019-02-23T21:35:23.010Z,26.17
2019-02-23T21:37:50.821Z,24.83
2019-02-23T21:40:18.724Z,21.13
2019-02-23T21:42:46.591Z,24.80
2019-02-23T21:45:14.381Z,25.17
2019-02-23T21:47:41.928Z,26.27
2019-02-23T21:50:09.634Z,23.77
2019-02-23T21:52:37.381Z,27.13
2019-02-23T21:55:04.900Z,25.57
2019-02-23T21:57:32.495Z,23.53
2019-02-23T22:00:00.458Z,22.80
2019-02-23T22:02:29.004Z,24.30
2019-02-23T22:04:56.531Z,21.67
2019-02-23T22:07:24.093Z,23.80
2019-02-23T22:09:52.040Z,24.13
2019-02-23T22:12:21.056Z,24.53
2019-02-23T22:14:48.878Z,22.33
2019-02-23T22:17:16.444Z,24.70
2019-02-23T22:19:44.016Z,20.93
2019-02-23T22:22:11.730Z,25.07
2019-02-23T22:24:39.190Z,24.77
2019-02-23T22:27:07.052Z,21.70
2019-02-23T22:29:34.589Z,23.83
2019-02-23T22:32:02.687Z,26.10
2019-02-23T22:34:30.243Z,28.47
2019-02-23T22:36:57.779Z,22.70
2019-02-23T22:39:25.263Z,24.10
2019-02-23T22:41:52.816Z,26.87
2019-02-23T22:44:20.444Z,25.17
2019-02-23T22:46:48.111Z,25.80
2019-02-23T22:49:15.691Z,22.97
2019-02-23T22:51:43.572Z,22.37
2019-02-23T22:54:11.254Z,28.53
2019-02-23T22:56:38.805Z,28.80
2019-02-23T22:59:06.375Z,28.80
2019-02-23T23:01:34.244Z,27.43
2019-02-23T23:04:01.805Z,33.07
2019-02-23T23:06:29.330Z,32.23
2019-02-23T23:08:56.815Z,29.30
2019-02-23T23:11:24.658Z,30.77
2019-02-23T23:13:52.591Z,27.90
2019-02-23T23:16:20.009Z,27.70
2019-02-23T23:18:47.580Z,31.67
2019-02-23T23:21:15.138Z,28.73
2019-02-23T23:23:42.722Z,31.63
2019-02-23T23:26:11.630Z,31.87
2019-02-23T23:28:39.311Z,34.43
2019-02-23T23:31:06.846Z,33.20
2019-02-23T23:33:34.325Z,30.97
2019-02-23T23:36:02.285Z,27.73
2019-02-23T23:38:29.839Z,29.70
2019-02-23T23:40:57.384Z,30.33
2019-02-23T23:43:25.106Z,27.67
2019-02-23T23:45:52.644Z,30.77
2019-02-23T23:48:20.547Z,27.87
2019-02-23T23:50:48.262Z,30.10
2019-02-23T23:53:15.846Z,33.90
2019-02-23T23:55:43.389Z,30.00
2019-02-23T23:58:10.893Z,30.07
